Time;durP1;ratioP1;P1;durP2;ratioP2;P2;SDS_P1;SDS_P2;PMS_P1;PMS_P2;Temp;Humidity;BMP_temperature;BMP_pressure;BME280_temperature;BME280_humidity;BME280_pressure;Samples;Min_cycle;Max_cycle;Signal;HPM_P1;HPM_P2
2021/10/14 00:01:39;;;;;;;12.90;7.97;;;;;;;26.39;21.55;98692.44;5080832;28;20055;-80
2021/10/14 00:04:05;;;;;;;13.68;7.95;;;;;;;26.32;21.55;98689.78;5080351;28;20025;-80
2021/10/14 00:06:31;;;;;;;11.75;7.90;;;;;;;26.44;21.45;98691.91;5090288;28;20032;-80
2021/10/14 00:08:57;;;;;;;13.77;8.30;;;;;;;26.27;21.51;98690.28;5074506;28;20398;-80
2021/10/14 00:11:24;;;;;;;14.63;8.65;;;;;;;26.45;21.30;98693.50;5079698;28;20032;-80
2021/10/14 00:13:50;;;;;;;14.07;8.85;;;;;;;26.45;21.16;98690.69;5081104;28;20041;-80
2021/10/14 00:16:16;;;;;;;16.90;9.63;;;;;;;26.35;21.53;98696.56;5083281;28;20500;-80
2021/10/14 00:18:43;;;;;;;14.82;8.48;;;;;;;26.29;21.56;98695.47;5081626;28;20040;-80
2021/10/14 00:21:09;;;;;;;14.98;9.63;;;;;;;25.89;22.06;98705.88;5087344;28;20137;-81
2021/10/14 00:23:35;;;;;;;13.07;7.80;;;;;;;25.99;21.97;98702.09;5078329;28;20024;-81
2021/10/14 00:26:01;;;;;;;13.43;7.80;;;;;;;26.23;21.59;98697.22;5072416;28;20052;-80
2021/10/14 00:28:27;;;;;;;12.10;7.22;;;;;;;26.49;21.23;98707.50;5085150;28;20036;-81
2021/10/14 00:30:53;;;;;;;14.32;7.55;;;;;;;26.56;21.41;98698.88;5079650;28;20036;-81
2021/10/14 00:33:19;;;;;;;15.63;8.45;;;;;;;26.64;21.08;98689.06;5087530;28;20036;-81
2021/10/14 00:35:45;;;;;;;14.77;8.00;;;;;;;26.81;21.07;98701.97;5090419;28;20032;-81
2021/10/14 00:38:11;;;;;;;11.32;7.40;;;;;;;26.98;20.67;98697.94;5089758;28;20047;-81
2021/10/14 00:40:38;;;;;;;15.38;9.50;;;;;;;27.02;20.58;98695.84;5080978;28;20098;-81
2021/10/14 00:43:04;;;;;;;17.73;9.13;;;;;;;26.99;20.50;98696.72;5083529;28;20071;-81
2021/10/14 00:45:30;;;;;;;16.30;9.40;;;;;;;26.70;21.01;98699.38;5083350;28;20036;-80
2021/10/14 00:47:57;;;;;;;17.83;10.52;;;;;;;26.14;21.62;98700.59;5085059;28;20040;-81
2021/10/14 00:50:23;;;;;;;19.58;10.85;;;;;;;25.85;21.93;98707.97;5085719;28;20063;-81
2021/10/14 00:52:52;;;;;;;18.35;9.77;;;;;;;25.72;22.11;98698.59;5084856;28;20070;-80
2021/10/14 00:55:19;;;;;;;18.00;10.15;;;;;;;25.64;22.25;98702.75;5079119;28;20028;-81
2021/10/14 00:57:45;;;;;;;20.88;11.40;;;;;;;25.39;22.42;98706.75;5085255;28;20509;-81
2021/10/14 01:00:11;;;;;;;18.33;10.77;;;;;;;25.08;22.81;98701.69;5077837;28;20138;-81
2021/10/14 01:02:37;;;;;;;19.02;10.63;;;;;;;24.84;23.54;98706.47;5075800;28;20484;-80
2021/10/14 01:05:05;;;;;;;21.30;12.13;;;;;;;24.52;23.90;98700.50;5086039;28;20103;-80
2021/10/14 01:07:31;;;;;;;17.80;10.85;;;;;;;24.08;24.47;98703.47;5087931;28;20028;-80
2021/10/14 01:09:57;;;;;;;20.75;13.32;;;;;;;23.80;24.67;98696.97;5080386;28;20050;-80
2021/10/14 01:12:25;;;;;;;20.27;11.50;;;;;;;24.04;24.76;98701.47;5091536;28;20051;-80
2021/10/14 01:14:51;;;;;;;23.10;14.02;;;;;;;24.32;24.54;98702.38;5079864;28;20145;-80
2021/10/14 01:17:17;;;;;;;19.35;11.55;;;;;;;24.58;23.90;98705.22;5083390;28;20401;-80
2021/10/14 01:19:44;;;;;;;25.75;12.38;;;;;;;24.59;23.97;98709.63;5080664;28;20386;-81
2021/10/14 01:22:11;;;;;;;21.10;11.50;;;;;;;24.65;23.75;98707.91;5084378;28;20028;-81
2021/10/14 01:24:37;;;;;;;22.75;13.00;;;;;;;24.04;24.59;98709.88;5081456;28;20028;-80
2021/10/14 01:27:05;;;;;;;21.00;11.82;;;;;;;24.33;24.49;98712.38;5084120;28;20024;-81
2021/10/14 01:29:31;;;;;;;21.98;12.48;;;;;;;24.59;24.21;98706.00;5076342;28;20046;-80
2021/10/14 01:31:58;;;;;;;21.20;12.60;;;;;;;24.74;23.63;98707.38;5084761;28;20033;-81
2021/10/14 01:34:24;;;;;;;16.85;10.75;;;;;;;24.94;23.71;98711.16;5079393;28;20068;-80
2021/10/14 01:36:50;;;;;;;19.25;11.30;;;;;;;25.22;23.19;98719.13;5078491;28;20490;-81
2021/10/14 01:39:16;;;;;;;23.50;12.63;;;;;;;24.91;23.41;98711.19;5078665;28;20107;-80
2021/10/14 01:41:47;;;;;;;17.25;10.57;;;;;;;24.72;23.76;98709.81;5085257;28;20035;-81
2021/10/14 01:44:13;;;;;;;25.80;15.45;;;;;;;24.37;24.25;98715.94;5086468;28;20031;-81
2021/10/14 01:46:40;;;;;;;23.13;12.40;;;;;;;23.75;25.32;98710.63;5080435;28;20028;-81
2021/10/14 01:49:06;;;;;;;19.23;12.23;;;;;;;;;;5089139;28;20024;-81
2021/10/14 01:51:32;;;;;;;22.75;12.60;;;;;;;23.77;25.24;98714.63;5078751;28;20502;-80
2021/10/14 01:53:58;;;;;;;23.23;12.98;;;;;;;23.96;25.00;98716.00;5083150;28;20099;-80
2021/10/14 01:56:24;;;;;;;25.58;14.38;;;;;;;23.94;25.06;98727.63;5081406;28;20521;-80
2021/10/14 01:58:51;;;;;;;25.40;14.57;;;;;;;24.03;25.13;98729.97;5080937;28;20097;-80
2021/10/14 02:01:17;;;;;;;24.23;13.95;;;;;;;23.60;25.64;98729.59;5079779;28;20036;-80
2021/10/14 02:03:43;;;;;;;21.30;12.70;;;;;;;23.88;25.16;98726.50;5081980;28;20024;-81
2021/10/14 02:06:09;;;;;;;16.95;11.55;;;;;;;23.96;25.14;98721.63;5085077;28;20094;-81
2021/10/14 02:08:35;;;;;;;21.77;13.50;;;;;;;24.25;24.68;98730.53;5074613;28;20047;-80
2021/10/14 02:11:01;;;;;;;20.17;11.43;;;;;;;24.48;24.46;98737.03;5089733;28;20042;-81
2021/10/14 02:13:27;;;;;;;22.77;13.13;;;;;;;24.67;24.00;98732.75;5084086;28;20169;-81
2021/10/14 02:15:53;;;;;;;23.15;13.68;;;;;;;24.99;23.83;98735.97;5083208;28;20033;-81
2021/10/14 02:18:19;;;;;;;25.73;14.45;;;;;;;24.74;24.03;98729.84;5077188;28;20025;-80
2021/10/14 02:20:45;;;;;;;30.60;19.15;;;;;;;23.99;24.71;98729.22;5089037;28;20040;-80
2021/10/14 02:23:11;;;;;;;21.67;12.60;;;;;;;23.73;25.15;98730.69;5083180;28;20024;-80
2021/10/14 02:25:37;;;;;;;28.38;13.45;;;;;;;23.51;25.83;98732.09;5087200;28;20525;-80
2021/10/14 02:28:03;;;;;;;23.20;13.27;;;;;;;23.63;25.64;98733.59;5075183;28;20031;-80
2021/10/14 02:30:29;;;;;;;16.42;10.98;;;;;;;24.06;25.02;98731.97;5082070;28;20063;-80
2021/10/14 02:32:55;;;;;;;17.95;10.85;;;;;;;24.71;24.19;98725.09;5087852;28;20028;-80
2021/10/14 02:35:21;;;;;;;19.27;11.88;;;;;;;24.43;24.18;98731.91;5088205;28;20040;-80
2021/10/14 02:37:47;;;;;;;18.65;11.25;;;;;;;24.87;23.91;98728.09;5088044;28;20059;-80
2021/10/14 02:40:14;;;;;;;19.80;11.57;;;;;;;25.00;23.43;98740.34;5089113;28;20047;-80
2021/10/14 02:42:40;;;;;;;21.08;12.48;;;;;;;24.76;23.72;98735.91;5077353;28;20066;-80
2021/10/14 02:45:06;;;;;;;20.73;12.85;;;;;;;24.03;24.49;98736.38;5079740;28;20047;-80
2021/10/14 02:47:32;;;;;;;15.95;10.50;;;;;;;23.90;24.83;98746.50;5082639;28;20036;-80
2021/10/14 02:49:58;;;;;;;27.27;13.05;;;;;;;23.29;25.77;98742.66;5091669;28;20031;-80
2021/10/14 02:52:24;;;;;;;20.23;11.75;;;;;;;23.20;25.82;98739.53;5090115;28;20045;-80
2021/10/14 02:54:50;;;;;;;24.42;14.55;;;;;;;23.45;25.40;98733.75;5085629;28;20069;-80
2021/10/14 02:57:16;;;;;;;18.92;11.48;;;;;;;23.09;25.94;98741.63;5083240;28;20024;-80
2021/10/14 02:59:42;;;;;;;19.05;12.60;;;;;;;23.18;25.65;98744.75;5091700;28;20047;-80
2021/10/14 03:02:08;;;;;;;16.75;10.60;;;;;;;23.64;25.12;98749.22;5093311;28;20154;-80
2021/10/14 03:04:35;;;;;;;17.05;9.90;;;;;;;23.31;25.47;98747.88;5081892;28;20036;-80
2021/10/14 03:07:01;;;;;;;17.73;11.77;;;;;;;22.97;25.94;98750.50;5086543;28;20032;-80
2021/10/14 03:09:27;;;;;;;15.13;9.15;;;;;;;22.66;26.43;98754.31;5083779;28;20044;-80
2021/10/14 03:11:53;;;;;;;15.35;9.10;;;;;;;23.00;26.02;98757.28;5088021;28;20028;-80
2021/10/14 03:14:19;;;;;;;15.23;9.25;;;;;;;23.26;25.59;98745.50;5078616;28;20405;-80
2021/10/14 03:16:45;;;;;;;16.13;10.38;;;;;;;23.26;25.25;98751.91;5090623;28;20025;-80
2021/10/14 03:19:11;;;;;;;16.15;9.90;;;;;;;23.09;25.47;98752.81;5087024;28;20117;-81
2021/10/14 03:21:37;;;;;;;15.63;9.18;;;;;;;23.31;25.09;98762.66;5089835;28;20603;-80
2021/10/14 03:24:03;;;;;;;15.10;9.50;;;;;;;22.92;25.84;98761.38;5082532;28;20502;-80
2021/10/14 03:26:29;;;;;;;16.48;9.15;;;;;;;22.31;26.42;98762.84;5083059;28;20106;-80
2021/10/14 03:28:56;;;;;;;12.90;8.35;;;;;;;22.62;25.82;98771.13;5089120;28;20040;-80
2021/10/14 03:31:22;;;;;;;15.52;9.70;;;;;;;22.77;25.71;98765.44;5085439;28;20037;-80
2021/10/14 03:33:48;;;;;;;12.52;8.85;;;;;;;22.79;25.45;98768.63;5076211;28;20442;-80
2021/10/14 03:36:14;;;;;;;14.88;8.95;;;;;;;22.95;24.98;98763.31;5074995;28;20035;-80
2021/10/14 03:38:40;;;;;;;11.85;8.35;;;;;;;23.06;24.77;98775.25;5088914;28;20056;-80
2021/10/14 03:41:06;;;;;;;12.77;8.80;;;;;;;23.29;24.63;98775.50;5075494;28;20446;-80
2021/10/14 03:43:32;;;;;;;13.68;8.15;;;;;;;23.46;24.35;98768.97;5082362;28;20369;-80
2021/10/14 03:45:58;;;;;;;11.43;7.10;;;;;;;23.75;23.93;98769.53;5091635;28;20038;-80
2021/10/14 03:48:24;;;;;;;10.35;6.72;;;;;;;23.48;24.24;98780.56;5086586;28;20072;-80
2021/10/14 03:50:50;;;;;;;11.18;7.97;;;;;;;23.55;24.23;98776.94;5087553;28;20039;-81
2021/10/14 03:53:16;;;;;;;11.57;8.18;;;;;;;23.61;24.11;98783.66;5082655;28;20036;-80
2021/10/14 03:55:42;;;;;;;14.10;8.75;;;;;;;23.91;23.82;98778.97;5081714;28;20035;-80
2021/10/14 03:58:08;;;;;;;15.55;9.63;;;;;;;23.06;24.74;98787.25;5078933;28;20037;-80
2021/10/14 04:00:34;;;;;;;11.50;8.18;;;;;;;22.59;25.35;98783.09;5085208;28;20032;-80
2021/10/14 04:03:00;;;;;;;12.35;8.70;;;;;;;22.20;26.03;98788.03;5080526;28;20147;-80
2021/10/14 04:05:27;;;;;;;12.75;9.68;;;;;;;23.05;25.07;98777.28;5087219;28;20081;-80
2021/10/14 04:07:53;;;;;;;10.95;7.30;;;;;;;23.36;24.28;98781.84;5073969;28;20477;-80
2021/10/14 04:10:19;;;;;;;12.60;8.70;;;;;;;23.73;24.25;98783.97;5087148;28;20036;-80
2021/10/14 04:12:45;;;;;;;11.68;7.63;;;;;;;23.21;24.66;98783.16;5077537;28;20058;-80
2021/10/14 04:15:12;;;;;;;13.10;7.43;;;;;;;23.45;24.22;98778.59;5074609;28;20029;-80
2021/10/14 04:17:38;;;;;;;13.93;8.98;;;;;;;23.07;24.83;98790.84;5078682;28;20497;-80
2021/10/14 04:20:05;;;;;;;11.95;8.13;;;;;;;22.76;25.24;98783.44;5083301;28;20040;-80
2021/10/14 04:22:31;;;;;;;11.95;7.93;;;;;;;23.01;24.96;98795.31;5091184;28;20028;-80
2021/10/14 04:24:57;;;;;;;12.52;8.93;;;;;;;22.71;25.12;98793.06;5084303;28;20032;-80
2021/10/14 04:27:23;;;;;;;9.43;7.10;;;;;;;22.90;25.15;98803.75;5084195;28;20076;-80
2021/10/14 04:29:49;;;;;;;12.18;8.27;;;;;;;23.05;25.12;98804.47;5092914;28;20036;-80
2021/10/14 04:32:16;;;;;;;11.50;7.78;;;;;;;23.54;24.24;98803.34;5091628;28;20059;-80
2021/10/14 04:34:43;;;;;;;12.35;7.55;;;;;;;23.59;24.25;98808.53;5080007;28;20090;-80
2021/10/14 04:37:09;;;;;;;10.90;7.75;;;;;;;22.20;25.96;98806.81;5082005;28;20024;-80
2021/10/14 04:39:39;;;;;;;10.52;7.55;;;;;;;22.71;25.20;98809.09;5077819;28;20072;-80
2021/10/14 04:42:06;;;;;;;17.48;9.80;;;;;;;23.13;24.75;98811.63;5072604;28;20401;-80
2021/10/14 04:44:33;;;;;;;11.48;8.07;;;;;;;23.67;24.00;98815.66;5082715;28;20448;-80
2021/10/14 04:47:02;;;;;;;13.90;9.27;;;;;;;22.82;25.02;98819.03;5083572;28;20034;-80
2021/10/14 04:49:29;;;;;;;11.73;7.43;;;;;;;21.97;26.13;98830.47;5089560;28;20040;-80
2021/10/14 04:51:56;;;;;;;10.57;7.22;;;;;;;22.31;25.70;98839.16;5045909;28;1089417;-80
2021/10/14 04:54:22;;;;;;;11.20;7.95;;;;;;;22.85;24.96;98828.59;5080642;28;20111;-79
2021/10/14 04:56:48;;;;;;;10.43;6.75;;;;;;;23.35;24.11;98827.13;5079184;28;20093;-79
2021/10/14 04:59:14;;;;;;;10.13;6.88;;;;;;;23.86;23.83;98835.50;5085695;28;20040;-80
2021/10/14 05:01:40;;;;;;;10.55;7.72;;;;;;;24.34;23.07;98834.66;5083828;28;20043;-79
2021/10/14 05:04:06;;;;;;;11.02;8.98;;;;;;;23.34;24.13;98836.69;5081442;28;20028;-80
2021/10/14 05:06:32;;;;;;;9.63;7.03;;;;;;;23.75;23.94;98837.63;5084174;28;20122;-81
2021/10/14 05:08:58;;;;;;;12.55;7.72;;;;;;;24.43;23.10;98837.78;5077541;28;20039;-80
2021/10/14 05:11:24;;;;;;;10.93;8.10;;;;;;;24.31;22.83;98838.31;5082471;28;20036;-81
2021/10/14 05:13:52;;;;;;;10.95;8.20;;;;;;;24.22;23.25;98835.19;5080460;28;20032;-80
2021/10/14 05:16:18;;;;;;;11.73;8.13;;;;;;;24.47;22.99;98842.13;5081877;28;20017;-81
2021/10/14 05:18:44;;;;;;;11.65;7.75;;;;;;;24.80;22.74;98842.56;5082933;28;20047;-80
2021/10/14 05:21:10;;;;;;;11.13;7.65;;;;;;;25.18;21.95;98839.22;5080211;28;20063;-80
2021/10/14 05:23:37;;;;;;;10.38;7.30;;;;;;;24.89;22.38;98848.47;5080026;28;20040;-80
2021/10/14 05:26:03;;;;;;;9.35;6.38;;;;;;;24.70;22.45;98842.25;5080635;28;20474;-82
2021/10/14 05:28:30;;;;;;;14.57;8.50;;;;;;;24.57;22.91;98844.03;5075329;28;20037;-81
2021/10/14 05:30:56;;;;;;;10.57;7.38;;;;;;;24.89;22.54;98848.47;5081950;28;20119;-81
2021/10/14 05:33:22;;;;;;;10.13;7.35;;;;;;;25.10;22.03;98853.81;5088748;28;20032;-81
2021/10/14 05:35:48;;;;;;;8.50;7.07;;;;;;;25.33;21.61;98851.84;5073934;28;20033;-81
2021/10/14 05:38:14;;;;;;;9.88;7.10;;;;;;;25.32;21.45;98860.72;5078202;28;20086;-81
2021/10/14 05:40:41;;;;;;;10.52;7.40;;;;;;;25.33;21.81;98856.69;5089276;28;20032;-81
2021/10/14 05:43:07;;;;;;;11.70;7.70;;;;;;;25.71;21.26;98858.13;5073852;28;20036;-81
2021/10/14 05:45:33;;;;;;;10.68;7.10;;;;;;;25.72;21.26;98858.94;5073670;28;20036;-81
2021/10/14 05:47:59;;;;;;;11.02;7.57;;;;;;;25.74;21.44;98862.13;5073423;28;20418;-81
2021/10/14 05:50:25;;;;;;;9.30;7.18;;;;;;;25.78;21.15;98863.66;5073229;28;20048;-81
2021/10/14 05:52:51;;;;;;;10.10;7.47;;;;;;;25.77;21.29;98867.66;5073031;28;20041;-81
2021/10/14 05:55:17;;;;;;;8.65;5.97;;;;;;;25.64;21.55;98871.50;5073413;28;20044;-81
2021/10/14 05:57:43;;;;;;;11.02;8.10;;;;;;;25.42;21.54;98863.38;5074627;28;20153;-81
2021/10/14 06:00:11;;;;;;;11.20;7.50;;;;;;;25.49;21.65;98875.75;5073680;28;20040;-81
2021/10/14 06:02:37;;;;;;;12.80;8.02;;;;;;;25.37;22.01;98874.28;5076908;28;20041;-81
2021/10/14 06:05:04;;;;;;;10.45;7.38;;;;;;;25.22;22.17;98875.72;5086477;28;20066;-81
2021/10/14 06:07:30;;;;;;;10.57;7.32;;;;;;;25.17;22.17;98874.19;5093486;28;20028;-81
2021/10/14 06:09:56;;;;;;;14.68;6.75;;;;;;;25.41;21.92;98875.81;5089315;28;20043;-81
2021/10/14 06:12:22;;;;;;;12.25;8.60;;;;;;;25.20;21.96;98880.97;5081043;28;20485;-81
2021/10/14 06:14:48;;;;;;;11.38;7.82;;;;;;;25.39;22.09;98885.91;5075042;28;20047;-81
2021/10/14 06:17:14;;;;;;;10.18;7.10;;;;;;;25.53;21.96;98882.94;5073151;28;20051;-81
2021/10/14 06:19:40;;;;;;;10.40;7.88;;;;;;;25.10;22.55;98879.09;5073156;28;20040;-81
2021/10/14 06:22:06;;;;;;;11.10;8.07;;;;;;;25.08;22.91;98884.34;5076609;28;20081;-81
2021/10/14 06:24:32;;;;;;;11.30;7.25;;;;;;;25.52;22.33;98884.13;5075778;28;20036;-81
2021/10/14 06:26:58;;;;;;;11.90;7.63;;;;;;;25.64;22.25;98882.75;5092109;28;20112;-81
2021/10/14 06:29:24;;;;;;;13.98;9.05;;;;;;;24.83;22.69;98879.06;5093097;28;20077;-81
2021/10/14 06:31:50;;;;;;;15.82;9.57;;;;;;;24.65;23.08;98882.03;5080835;28;20039;-81
2021/10/14 06:34:17;;;;;;;13.55;8.48;;;;;;;24.81;23.15;98878.66;5091485;28;20470;-81
2021/10/14 06:36:43;;;;;;;12.98;8.13;;;;;;;25.01;22.91;98882.44;5093295;28;20111;-81
2021/10/14 06:39:09;;;;;;;13.57;9.30;;;;;;;24.69;23.56;98871.53;5089338;28;20472;-81
2021/10/14 06:41:35;;;;;;;11.27;8.50;;;;;;;24.16;23.71;98887.34;5071987;28;20036;-81
2021/10/14 06:44:01;;;;;;;14.85;8.05;;;;;;;23.57;24.15;98881.81;5072315;28;20107;-81
2021/10/14 06:46:27;;;;;;;13.80;8.85;;;;;;;23.92;24.35;98889.16;5072747;28;20472;-81
2021/10/14 06:48:53;;;;;;;14.02;8.52;;;;;;;23.92;24.12;98889.16;5072559;28;20561;-81
2021/10/14 06:51:19;;;;;;;10.75;6.72;;;;;;;23.05;25.26;98894.09;5077032;28;20079;-81
2021/10/14 06:53:45;;;;;;;13.30;8.63;;;;;;;23.36;24.96;98888.34;5081435;28;20032;-81
2021/10/14 06:56:11;;;;;;;11.40;7.85;;;;;;;23.40;25.06;98887.53;5072549;28;20041;-81
2021/10/14 06:58:37;;;;;;;14.10;8.98;;;;;;;23.89;24.37;98895.59;5073187;28;20032;-81
2021/10/14 07:01:03;;;;;;;14.90;10.10;;;;;;;23.40;24.95;98893.94;5073098;28;20081;-81
2021/10/14 07:03:29;;;;;;;16.88;11.23;;;;;;;24.03;24.24;98887.06;5071240;28;20090;-81
2021/10/14 07:05:55;;;;;;;16.55;9.70;;;;;;;24.50;23.64;98888.22;5075763;28;20394;-81
2021/10/14 07:08:21;;;;;;;20.00;10.40;;;;;;;24.41;23.76;98885.88;5081038;28;20486;-81
2021/10/14 07:10:47;;;;;;;15.70;9.57;;;;;;;25.27;23.01;98886.50;5080394;28;20393;-81
2021/10/14 07:13:14;;;;;;;16.30;10.32;;;;;;;25.38;23.03;98889.94;5092069;28;20512;-81
2021/10/14 07:15:40;;;;;;;12.98;9.68;;;;;;;24.77;23.35;98885.53;5075582;28;20123;-81
2021/10/14 07:18:08;;;;;;;14.05;9.18;;;;;;;24.61;23.67;98886.91;5075671;28;20028;-81
2021/10/14 07:20:35;;;;;;;14.38;9.60;;;;;;;24.98;23.20;98879.66;5073287;28;20079;-81
2021/10/14 07:23:16;;;;;;;14.32;9.80;;;;;;;24.29;23.53;98882.84;5085497;28;20036;-81
2021/10/14 07:25:43;;;;;;;;;;;;;;;24.89;23.11;98894.22;5093452;28;20024;-82
2021/10/14 07:28:09;;;;;;;12.80;7.75;;;;;;;24.72;23.30;98889.56;5092834;28;19912;-81
2021/10/14 07:30:37;;;;;;;13.43;8.95;;;;;;;24.36;23.56;98891.19;5084382;28;20051;-81
2021/10/14 07:33:03;;;;;;;11.82;8.13;;;;;;;24.43;24.10;98894.72;5072216;28;20422;-82
2021/10/14 07:35:35;;;;;;;14.18;8.25;;;;;;;24.17;23.85;98903.78;5075858;28;20599;-82
2021/10/14 07:38:09;;;;;;;11.63;7.72;;;;;;;24.59;23.81;98889.31;5076481;28;20075;-82
2021/10/14 07:40:39;;;;;;;10.20;7.43;;;;;;;24.73;23.75;98891.16;5078080;28;20055;-82
2021/10/14 07:43:06;;;;;;;11.15;7.68;;;;;;;24.95;23.53;98888.94;5075981;28;20032;-82
2021/10/14 07:45:32;;;;;;;10.25;7.13;;;;;;;24.56;23.83;98887.34;5076082;28;20494;-81
2021/10/14 07:47:59;;;;;;;11.98;7.63;;;;;;;24.42;23.81;98884.69;5075682;28;20033;-81
2021/10/14 07:50:25;;;;;;;10.07;7.53;;;;;;;24.44;23.97;98879.44;5075649;28;20052;-82
2021/10/14 07:52:51;;;;;;;11.55;7.72;;;;;;;23.98;24.36;98879.88;5075476;28;20048;-82
2021/10/14 07:55:17;;;;;;;12.77;7.97;;;;;;;24.25;23.93;98876.47;5087658;28;20120;-81
2021/10/14 07:57:44;;;;;;;12.93;7.43;;;;;;;24.71;23.53;98871.13;5077091;28;20035;-82
2021/10/14 08:00:11;;;;;;;11.57;7.70;;;;;;;24.55;23.60;98866.09;5075471;28;20587;-81
2021/10/14 08:02:37;;;;;;;9.00;6.05;;;;;;;25.27;22.70;98884.47;5077093;28;20044;-81
2021/10/14 08:05:04;;;;;;;11.85;7.35;;;;;;;24.93;23.60;98869.66;5092385;28;20043;-81
2021/10/14 08:07:31;;;;;;;10.82;6.78;;;;;;;24.43;24.12;98872.25;5093268;28;20081;-82
2021/10/14 08:09:57;;;;;;;9.68;6.70;;;;;;;25.24;23.41;98871.28;5095555;28;20508;-82
2021/10/14 08:12:23;;;;;;;7.35;5.72;;;;;;;25.55;23.08;98871.25;5092034;28;20111;-82
2021/10/14 08:14:50;;;;;;;9.27;6.10;;;;;;;24.68;23.78;98875.56;5086411;28;20033;-81
2021/10/14 08:17:16;;;;;;;9.63;6.47;;;;;;;25.14;24.12;98874.22;5095697;28;20032;-82
2021/10/14 08:19:42;;;;;;;10.38;6.97;;;;;;;24.84;23.57;98869.38;5093645;28;20461;-82
2021/10/14 08:22:08;;;;;;;10.88;6.30;;;;;;;25.30;23.24;98875.19;5092081;28;20086;-82
2021/10/14 08:24:36;;;;;;;10.43;6.80;;;;;;;24.39;23.91;98876.28;5075382;28;20052;-81
2021/10/14 08:27:03;;;;;;;8.55;5.80;;;;;;;25.01;24.12;98874.00;5075514;28;20032;-82
2021/10/14 08:29:29;;;;;;;8.40;5.78;;;;;;;25.29;23.20;98867.19;5078275;28;20055;-81
2021/10/14 08:31:56;;;;;;;7.25;5.53;;;;;;;26.37;22.35;98869.44;5089536;28;20071;-82
2021/10/14 08:34:23;;;;;;;8.57;5.50;;;;;;;27.05;21.80;98866.13;5095456;28;20393;-82
2021/10/14 08:36:49;;;;;;;7.45;4.88;;;;;;;26.80;21.69;98863.00;5077488;28;20040;-82
2021/10/14 08:39:15;;;;;;;5.57;4.47;;;;;;;26.95;21.78;98862.28;5075028;28;20047;-82
2021/10/14 08:41:44;;;;;;;5.05;3.70;;;;;;;27.15;21.44;98863.06;5075177;28;20401;-81
2021/10/14 08:44:13;;;;;;;5.90;4.13;;;;;;;27.82;20.76;98860.72;5074961;28;20062;-82
2021/10/14 08:46:41;;;;;;;6.13;4.10;;;;;;;28.08;20.43;98861.72;5074726;28;20041;-82
2021/10/14 08:49:09;;;;;;;4.95;3.97;;;;;;;28.26;20.35;98856.38;5089888;28;20540;-82
2021/10/14 08:51:35;;;;;;;4.95;4.05;;;;;;;27.62;20.25;98860.78;5094191;28;20048;-82
2021/10/14 08:54:01;;;;;;;7.25;4.65;;;;;;;27.79;20.51;98856.75;5075158;28;20032;-82
2021/10/14 08:56:30;;;;;;;5.30;3.75;;;;;;;28.06;19.81;98857.28;5087257;28;20044;-82
2021/10/14 08:58:56;;;;;;;5.38;3.55;;;;;;;28.03;20.13;98848.91;5093613;28;20489;-82
2021/10/14 09:01:22;;;;;;;4.13;2.90;;;;;;;27.93;20.40;98856.41;5093000;28;20055;-82
2021/10/14 09:03:51;;;;;;;3.08;2.53;;;;;;;28.17;20.13;98859.81;5092413;28;20032;-82
2021/10/14 09:06:18;;;;;;;3.45;2.33;;;;;;;28.46;20.09;98857.84;5082363;28;20036;-82
2021/10/14 09:08:46;;;;;;;5.47;3.25;;;;;;;28.64;19.50;98857.34;5091378;28;20064;-82
2021/10/14 09:11:28;;;;;;;4.85;2.20;;;;;;;28.78;19.19;98848.47;5094654;28;20039;-81
2021/10/14 09:13:57;;;;;;;3.53;2.75;;;;;;;28.74;19.16;98854.25;5076966;28;20453;-82
2021/10/14 09:16:29;;;;;;;4.60;2.30;;;;;;;28.54;19.13;98850.72;5088226;28;20408;-82
2021/10/14 09:19:21;;;;;;;2.83;2.10;;;;;;;28.50;19.41;98854.91;5094516;28;20366;-82
2021/10/14 09:21:57;;;;;;;3.20;2.17;;;;;;;28.84;18.69;98846.69;5075350;28;20048;-82
2021/10/14 09:24:35;;;;;;;1.80;1.42;;;;;;;27.32;20.04;98846.97;5074052;28;20028;-82
2021/10/14 09:27:19;;;;;;;1.60;1.20;;;;;;;27.62;19.46;98849.50;5085573;28;20052;-81
2021/10/14 09:29:45;;;;;;;1.98;1.50;;;;;;;27.84;18.48;98859.03;5075811;28;20040;-82
2021/10/14 09:32:20;;;;;;;3.13;1.20;;;;;;;28.09;18.11;98852.78;5078317;28;20032;-82
2021/10/14 09:34:49;;;;;;;1.45;1.10;;;;;;;28.64;17.76;98846.06;5071975;28;20028;-82
2021/10/14 09:37:17;;;;;;;1.50;1.33;;;;;;;28.68;18.11;98849.59;5074782;28;20029;-82
2021/10/14 09:40:14;;;;;;;1.60;1.17;;;;;;;28.02;18.74;98856.59;5090556;28;20032;-82
2021/10/14 09:42:41;;;;;;;2.70;1.58;;;;;;;26.77;20.43;98855.44;5083057;28;20029;-81
2021/10/14 09:45:42;;;;;;;2.78;1.25;;;;;;;25.58;20.17;98851.50;5074042;28;20229;-82
2021/10/14 09:48:11;;;;;;;1.35;1.10;;;;;;;25.85;20.56;98848.66;5012261;28;20049;-82
2021/10/14 09:50:45;;;;;;;3.08;1.30;;;;;;;25.50;21.66;98855.66;5075024;28;20101;-82
2021/10/14 09:53:16;;;;;;;2.90;2.03;;;;;;;24.20;22.42;98858.03;5073469;28;20044;-82
2021/10/14 09:55:44;;;;;;;2.78;2.22;;;;;;;21.44;26.20;98856.78;5082104;28;20398;-81
2021/10/14 09:58:13;;;;;;;3.78;1.63;;;;;;;23.90;22.53;98841.06;5073152;28;20028;-82
2021/10/14 10:00:41;;;;;;;2.15;1.55;;;;;;;24.92;21.48;98854.06;5075206;28;20464;-82
2021/10/14 10:03:10;;;;;;;2.15;1.83;;;;;;;24.64;21.54;98843.13;5075215;28;20562;-82
2021/10/14 10:05:39;;;;;;;3.40;1.85;;;;;;;25.19;21.07;98840.00;5073389;28;20455;-82
2021/10/14 10:08:08;;;;;;;2.33;1.67;;;;;;;25.27;21.31;98850.75;5073422;28;20032;-81
2021/10/14 10:10:37;;;;;;;2.33;1.63;;;;;;;25.36;22.64;98859.44;5077921;28;20068;-82
2021/10/14 10:13:05;;;;;;;2.80;1.67;;;;;;;26.14;20.29;98860.25;5079669;28;20056;-82
2021/10/14 10:15:45;;;;;;;1.45;1.30;;;;;;;26.27;20.41;98852.75;5073280;28;20394;-81
2021/10/14 10:18:30;;;;;;;2.45;1.83;;;;;;;26.95;18.66;98839.75;5073397;28;20028;-82
2021/10/14 10:20:59;;;;;;;1.98;1.00;;;;;;;26.42;20.08;98837.19;5073519;28;20036;-82
2021/10/14 10:23:45;;;;;;;1.45;1.23;;;;;;;27.10;18.86;98834.56;5072664;28;20067;-82
2021/10/14 10:26:32;;;;;;;1.50;1.40;;;;;;;26.35;19.59;98840.94;5079948;28;20029;-81
2021/10/14 10:29:01;;;;;;;1.73;1.20;;;;;;;25.02;20.32;98843.91;5084555;28;20123;-82
2021/10/14 10:31:46;;;;;;;2.08;1.20;;;;;;;26.45;19.45;98831.47;5077180;28;20048;-82
2021/10/14 10:34:38;;;;;;;1.40;1.27;;;;;;;27.28;18.81;98830.13;5070928;28;20588;-82
2021/10/14 10:37:30;;;;;;;2.17;1.70;;;;;;;28.06;18.27;98828.25;5072661;28;20078;-82
2021/10/14 10:40:03;;;;;;;2.22;1.10;;;;;;;28.86;16.29;98823.63;5073040;28;20116;-82
2021/10/14 10:42:38;;;;;;;0.93;0.80;;;;;;;28.50;16.92;98815.34;5072678;28;20504;-82
2021/10/14 10:45:13;;;;;;;1.27;0.90;;;;;;;29.04;15.74;98810.53;5078448;28;20032;-82
2021/10/14 10:47:53;;;;;;;2.50;0.85;;;;;;;28.33;16.93;98805.34;5080893;28;20028;-82
2021/10/14 10:50:34;;;;;;;2.75;1.15;;;;;;;28.92;16.39;98805.66;5077442;28;20040;-82
2021/10/14 10:53:09;;;;;;;1.27;0.80;;;;;;;29.29;15.56;98799.28;5078972;28;20049;-82
2021/10/14 10:55:53;;;;;;;0.80;0.70;;;;;;;30.05;15.66;98797.16;5075575;28;20497;-82
2021/10/14 10:58:28;;;;;;;0.90;0.60;;;;;;;29.88;14.86;98792.09;5077555;28;20035;-82
2021/10/14 11:00:55;;;;;;;0.93;0.50;;;;;;;29.53;14.35;98794.06;5083452;28;20035;-82
2021/10/14 11:03:23;;;;;;;1.60;0.60;;;;;;;29.61;15.05;98789.75;5077740;28;20036;-82
2021/10/14 11:05:58;;;;;;;2.72;0.63;;;;;;;29.96;14.86;98796.28;5072973;28;21729;-82
2021/10/14 11:08:30;;;;;;;1.08;0.47;;;;;;;30.05;15.64;98790.69;5076491;28;20033;-82
2021/10/14 11:11:02;;;;;;;1.05;0.60;;;;;;;30.54;15.28;98783.25;5085133;28;20040;-82
2021/10/14 11:13:32;;;;;;;0.68;0.50;;;;;;;30.94;15.07;98774.88;5088768;28;20040;-82
2021/10/14 11:15:59;;;;;;;0.63;0.50;;;;;;;30.89;14.13;98769.00;5096337;28;20085;-82
2021/10/14 11:18:27;;;;;;;1.02;0.50;;;;;;;30.89;14.63;98766.19;5089544;28;20085;-82
2021/10/14 11:20:58;;;;;;;1.77;0.40;;;;;;;30.84;14.95;98766.75;5080324;28;20505;-83
2021/10/14 11:23:26;;;;;;;0.32;0.30;;;;;;;30.78;15.11;98764.50;5079512;28;20119;-82
2021/10/14 11:26:03;;;;;;;0.85;0.40;;;;;;;30.82;14.25;98764.38;5076230;28;20096;-82
2021/10/14 11:28:30;;;;;;;0.77;0.30;;;;;;;30.74;15.13;98763.84;5082179;28;20036;-82
2021/10/14 11:31:00;;;;;;;0.55;0.50;;;;;;;30.82;13.90;98755.06;5095233;28;20039;-81